sensor_id;sensor_type;location;lat;lon;timestamp;P1;durP1;ratioP1;P2;durP2;ratioP2
46675;SDS011;32412;51.478;5.694;2023-02-28T00:01:13;15.45;;;7.13;;
46675;SDS011;32412;51.478;5.694;2023-02-28T00:03:40;13.30;;;6.80;;
46675;SDS011;32412;51.478;5.694;2023-02-28T00:06:06;13.95;;;7.40;;
46675;SDS011;32412;51.478;5.694;2023-02-28T00:08:34;12.25;;;7.38;;
46675;SDS011;32412;51.478;5.694;2023-02-28T00:11:01;10.70;;;8.10;;
46675;SDS011;32412;51.478;5.694;2023-02-28T00:13:30;12.35;;;7.28;;
46675;SDS011;32412;51.478;5.694;2023-02-28T00:16:03;12.40;;;7.25;;
46675;SDS011;32412;51.478;5.694;2023-02-28T00:18:34;12.90;;;7.45;;
46675;SDS011;32412;51.478;5.694;2023-02-28T00:21:00;12.85;;;7.35;;
46675;SDS011;32412;51.478;5.694;2023-02-28T00:23:27;14.93;;;7.72;;
46675;SDS011;32412;51.478;5.694;2023-02-28T00:25:53;12.60;;;8.15;;
46675;SDS011;32412;51.478;5.694;2023-02-28T00:28:19;16.77;;;7.47;;
46675;SDS011;32412;51.478;5.694;2023-02-28T00:30:49;15.18;;;7.82;;
46675;SDS011;32412;51.478;5.694;2023-02-28T00:33:14;18.58;;;7.88;;
46675;SDS011;32412;51.478;5.694;2023-02-28T00:35:40;13.80;;;7.60;;
46675;SDS011;32412;51.478;5.694;2023-02-28T00:38:06;12.80;;;7.47;;
46675;SDS011;32412;51.478;5.694;2023-02-28T00:40:32;13.45;;;7.15;;
46675;SDS011;32412;51.478;5.694;2023-02-28T00:42:58;14.18;;;7.43;;
46675;SDS011;32412;51.478;5.694;2023-02-28T00:45:24;13.32;;;7.32;;
46675;SDS011;32412;51.478;5.694;2023-02-28T00:47:50;14.70;;;7.72;;
46675;SDS011;32412;51.478;5.694;2023-02-28T00:50:19;16.48;;;7.88;;
46675;SDS011;32412;51.478;5.694;2023-02-28T00:52:45;13.77;;;7.90;;
46675;SDS011;32412;51.478;5.694;2023-02-28T00:55:11;10.98;;;7.70;;
46675;SDS011;32412;51.478;5.694;2023-02-28T00:57:40;16.27;;;7.68;;
46675;SDS011;32412;51.478;5.694;2023-02-28T01:00:06;17.33;;;7.75;;
46675;SDS011;32412;51.478;5.694;2023-02-28T01:02:33;12.82;;;7.78;;
46675;SDS011;32412;51.478;5.694;2023-02-28T01:04:59;12.93;;;7.25;;
46675;SDS011;32412;51.478;5.694;2023-02-28T01:07:25;13.18;;;7.90;;
46675;SDS011;32412;51.478;5.694;2023-02-28T01:09:50;14.43;;;7.95;;
46675;SDS011;32412;51.478;5.694;2023-02-28T01:12:16;15.02;;;8.57;;
46675;SDS011;32412;51.478;5.694;2023-02-28T01:14:42;16.05;;;8.38;;
46675;SDS011;32412;51.478;5.694;2023-02-28T01:17:08;13.02;;;7.80;;
46675;SDS011;32412;51.478;5.694;2023-02-28T01:19:34;15.90;;;8.00;;
46675;SDS011;32412;51.478;5.694;2023-02-28T01:22:04;12.90;;;7.57;;
46675;SDS011;32412;51.478;5.694;2023-02-28T01:24:31;17.08;;;8.25;;
46675;SDS011;32412;51.478;5.694;2023-02-28T01:26:57;15.05;;;8.35;;
46675;SDS011;32412;51.478;5.694;2023-02-28T01:29:23;13.90;;;8.27;;
46675;SDS011;32412;51.478;5.694;2023-02-28T01:31:48;15.77;;;8.60;;
46675;SDS011;32412;51.478;5.694;2023-02-28T01:34:14;15.48;;;8.85;;
46675;SDS011;32412;51.478;5.694;2023-02-28T01:36:40;15.10;;;8.77;;
46675;SDS011;32412;51.478;5.694;2023-02-28T01:39:05;16.25;;;8.38;;
46675;SDS011;32412;51.478;5.694;2023-02-28T01:41:32;15.73;;;8.50;;
46675;SDS011;32412;51.478;5.694;2023-02-28T01:44:04;13.32;;;8.32;;
46675;SDS011;32412;51.478;5.694;2023-02-28T01:46:48;13.40;;;8.40;;
46675;SDS011;32412;51.478;5.694;2023-02-28T01:49:15;13.77;;;8.82;;
46675;SDS011;32412;51.478;5.694;2023-02-28T01:51:49;16.05;;;8.43;;
46675;SDS011;32412;51.478;5.694;2023-02-28T01:54:20;15.63;;;8.77;;
46675;SDS011;32412;51.478;5.694;2023-02-28T01:56:51;14.48;;;8.13;;
46675;SDS011;32412;51.478;5.694;2023-02-28T01:59:25;19.75;;;8.80;;
46675;SDS011;32412;51.478;5.694;2023-02-28T02:01:55;16.98;;;8.38;;
46675;SDS011;32412;51.478;5.694;2023-02-28T02:04:21;13.95;;;8.32;;
46675;SDS011;32412;51.478;5.694;2023-02-28T02:06:50;18.35;;;8.75;;
46675;SDS011;32412;51.478;5.694;2023-02-28T02:09:16;14.45;;;8.65;;
46675;SDS011;32412;51.478;5.694;2023-02-28T02:11:43;18.58;;;8.35;;
46675;SDS011;32412;51.478;5.694;2023-02-28T02:19:45;15.20;;;8.23;;
46675;SDS011;32412;51.478;5.694;2023-02-28T02:25:22;21.42;;;8.23;;
46675;SDS011;32412;51.478;5.694;2023-02-28T02:38:42;16.63;;;8.48;;
46675;SDS011;32412;51.478;5.694;2023-02-28T02:41:23;19.08;;;8.70;;
46675;SDS011;32412;51.478;5.694;2023-02-28T02:49:18;13.25;;;7.63;;
46675;SDS011;32412;51.478;5.694;2023-02-28T02:51:52;13.82;;;8.02;;
46675;SDS011;32412;51.478;5.694;2023-02-28T02:54:24;15.68;;;8.52;;
46675;SDS011;32412;51.478;5.694;2023-02-28T02:56:54;15.60;;;8.55;;
46675;SDS011;32412;51.478;5.694;2023-02-28T02:59:26;17.38;;;8.57;;
46675;SDS011;32412;51.478;5.694;2023-02-28T03:01:55;15.50;;;8.43;;
46675;SDS011;32412;51.478;5.694;2023-02-28T03:04:25;92.90;;;27.83;;
46675;SDS011;32412;51.478;5.694;2023-02-28T03:06:55;31.75;;;13.60;;
46675;SDS011;32412;51.478;5.694;2023-02-28T03:09:21;30.70;;;11.90;;
46675;SDS011;32412;51.478;5.694;2023-02-28T03:11:48;25.65;;;10.07;;
46675;SDS011;32412;51.478;5.694;2023-02-28T03:25:36;32.13;;;14.10;;
46675;SDS011;32412;51.478;5.694;2023-02-28T03:31:16;51.63;;;22.27;;
46675;SDS011;32412;51.478;5.694;2023-02-28T03:33:57;59.13;;;24.38;;
46675;SDS011;32412;51.478;5.694;2023-02-28T03:36:30;69.18;;;26.63;;
46675;SDS011;32412;51.478;5.694;2023-02-28T03:39:05;68.32;;;26.08;;
46675;SDS011;32412;51.478;5.694;2023-02-28T03:41:48;47.70;;;19.35;;
46675;SDS011;32412;51.478;5.694;2023-02-28T03:44:23;38.22;;;18.33;;
46675;SDS011;32412;51.478;5.694;2023-02-28T03:47:07;27.52;;;15.23;;
46675;SDS011;32412;51.478;5.694;2023-02-28T03:52:13;36.97;;;13.73;;
46675;SDS011;32412;51.478;5.694;2023-02-28T03:54:43;25.77;;;11.90;;
46675;SDS011;32412;51.478;5.694;2023-02-28T03:57:23;20.55;;;10.82;;
46675;SDS011;32412;51.478;5.694;2023-02-28T04:00:02;18.95;;;11.23;;
46675;SDS011;32412;51.478;5.694;2023-02-28T04:02:39;20.63;;;10.45;;
46675;SDS011;32412;51.478;5.694;2023-02-28T04:05:05;8.98;;;6.00;;
46675;SDS011;32412;51.478;5.694;2023-02-28T04:07:31;8.80;;;5.60;;
46675;SDS011;32412;51.478;5.694;2023-02-28T04:09:57;11.85;;;6.10;;
46675;SDS011;32412;51.478;5.694;2023-02-28T04:12:24;12.93;;;5.60;;
46675;SDS011;32412;51.478;5.694;2023-02-28T04:14:50;14.13;;;6.55;;
46675;SDS011;32412;51.478;5.694;2023-02-28T04:17:16;12.63;;;6.20;;
46675;SDS011;32412;51.478;5.694;2023-02-28T04:19:42;19.45;;;8.75;;
46675;SDS011;32412;51.478;5.694;2023-02-28T04:22:09;23.05;;;9.75;;
46675;SDS011;32412;51.478;5.694;2023-02-28T04:24:35;10.65;;;6.32;;
46675;SDS011;32412;51.478;5.694;2023-02-28T04:27:01;10.93;;;6.55;;
46675;SDS011;32412;51.478;5.694;2023-02-28T04:29:27;12.43;;;6.13;;
46675;SDS011;32412;51.478;5.694;2023-02-28T04:31:55;12.75;;;6.97;;
46675;SDS011;32412;51.478;5.694;2023-02-28T04:34:23;14.25;;;6.55;;
46675;SDS011;32412;51.478;5.694;2023-02-28T04:36:49;9.25;;;5.30;;
46675;SDS011;32412;51.478;5.694;2023-02-28T04:39:18;10.50;;;5.28;;
46675;SDS011;32412;51.478;5.694;2023-02-28T04:41:45;13.15;;;6.53;;
46675;SDS011;32412;51.478;5.694;2023-02-28T04:44:11;12.45;;;7.70;;
46675;SDS011;32412;51.478;5.694;2023-02-28T04:46:37;11.43;;;6.97;;
46675;SDS011;32412;51.478;5.694;2023-02-28T04:49:02;8.18;;;5.43;;
46675;SDS011;32412;51.478;5.694;2023-02-28T04:51:28;9.15;;;5.13;;
46675;SDS011;32412;51.478;5.694;2023-02-28T04:53:54;8.88;;;5.53;;
46675;SDS011;32412;51.478;5.694;2023-02-28T04:56:20;11.85;;;5.45;;
46675;SDS011;32412;51.478;5.694;2023-02-28T04:58:46;14.40;;;6.18;;
46675;SDS011;32412;51.478;5.694;2023-02-28T05:01:17;14.50;;;7.53;;
46675;SDS011;32412;51.478;5.694;2023-02-28T05:03:45;10.65;;;5.82;;
46675;SDS011;32412;51.478;5.694;2023-02-28T05:06:11;8.57;;;4.82;;
46675;SDS011;32412;51.478;5.694;2023-02-28T05:08:37;12.48;;;6.32;;
46675;SDS011;32412;51.478;5.694;2023-02-28T05:11:03;10.20;;;5.40;;
46675;SDS011;32412;51.478;5.694;2023-02-28T05:13:31;12.15;;;7.47;;
46675;SDS011;32412;51.478;5.694;2023-02-28T05:15:57;11.85;;;5.07;;
46675;SDS011;32412;51.478;5.694;2023-02-28T05:18:30;8.48;;;4.82;;
46675;SDS011;32412;51.478;5.694;2023-02-28T05:20:55;9.57;;;5.05;;
46675;SDS011;32412;51.478;5.694;2023-02-28T05:23:22;6.82;;;4.57;;
46675;SDS011;32412;51.478;5.694;2023-02-28T05:25:48;10.27;;;6.10;;
46675;SDS011;32412;51.478;5.694;2023-02-28T05:28:14;20.77;;;8.90;;
46675;SDS011;32412;51.478;5.694;2023-02-28T05:30:40;22.48;;;11.55;;
46675;SDS011;32412;51.478;5.694;2023-02-28T05:33:05;12.43;;;7.05;;
46675;SDS011;32412;51.478;5.694;2023-02-28T05:35:31;17.08;;;7.97;;
46675;SDS011;32412;51.478;5.694;2023-02-28T05:37:57;14.98;;;7.30;;
46675;SDS011;32412;51.478;5.694;2023-02-28T05:40:23;13.60;;;7.40;;
46675;SDS011;32412;51.478;5.694;2023-02-28T05:42:50;11.07;;;6.13;;
46675;SDS011;32412;51.478;5.694;2023-02-28T05:45:16;13.57;;;6.85;;
46675;SDS011;32412;51.478;5.694;2023-02-28T05:47:42;10.15;;;7.05;;
46675;SDS011;32412;51.478;5.694;2023-02-28T05:50:11;9.50;;;7.60;;
46675;SDS011;32412;51.478;5.694;2023-02-28T05:52:37;13.73;;;6.65;;
46675;SDS011;32412;51.478;5.694;2023-02-28T05:55:03;10.90;;;6.43;;
46675;SDS011;32412;51.478;5.694;2023-02-28T05:57:29;10.65;;;8.07;;
46675;SDS011;32412;51.478;5.694;2023-02-28T05:59:55;10.63;;;6.57;;
46675;SDS011;32412;51.478;5.694;2023-02-28T06:02:20;10.50;;;5.72;;
46675;SDS011;32412;51.478;5.694;2023-02-28T06:04:46;18.65;;;13.90;;
46675;SDS011;32412;51.478;5.694;2023-02-28T06:07:12;12.82;;;7.72;;
46675;SDS011;32412;51.478;5.694;2023-02-28T06:09:41;10.02;;;6.53;;
46675;SDS011;32412;51.478;5.694;2023-02-28T06:12:09;9.52;;;6.18;;
46675;SDS011;32412;51.478;5.694;2023-02-28T06:14:35;9.68;;;6.80;;
46675;SDS011;32412;51.478;5.694;2023-02-28T06:17:01;12.68;;;7.05;;
46675;SDS011;32412;51.478;5.694;2023-02-28T06:19:28;6.93;;;4.97;;
46675;SDS011;32412;51.478;5.694;2023-02-28T06:21:55;8.63;;;5.40;;
46675;SDS011;32412;51.478;5.694;2023-02-28T06:24:22;9.98;;;5.47;;
46675;SDS011;32412;51.478;5.694;2023-02-28T06:26:49;9.70;;;5.43;;
46675;SDS011;32412;51.478;5.694;2023-02-28T06:29:15;11.55;;;5.78;;
46675;SDS011;32412;51.478;5.694;2023-02-28T06:31:44;11.10;;;4.90;;
46675;SDS011;32412;51.478;5.694;2023-02-28T06:34:11;8.82;;;5.65;;
46675;SDS011;32412;51.478;5.694;2023-02-28T06:36:38;9.68;;;5.38;;
46675;SDS011;32412;51.478;5.694;2023-02-28T06:39:07;12.98;;;5.97;;
46675;SDS011;32412;51.478;5.694;2023-02-28T06:41:33;11.80;;;6.03;;
46675;SDS011;32412;51.478;5.694;2023-02-28T06:44:03;11.05;;;5.10;;
46675;SDS011;32412;51.478;5.694;2023-02-28T06:46:40;11.00;;;5.75;;
46675;SDS011;32412;51.478;5.694;2023-02-28T06:49:07;7.55;;;4.93;;
46675;SDS011;32412;51.478;5.694;2023-02-28T06:51:36;7.28;;;5.10;;
46675;SDS011;32412;51.478;5.694;2023-02-28T06:54:04;11.25;;;5.45;;
46675;SDS011;32412;51.478;5.694;2023-02-28T06:56:34;6.80;;;4.50;;
46675;SDS011;32412;51.478;5.694;2023-02-28T06:59:00;7.95;;;4.80;;
46675;SDS011;32412;51.478;5.694;2023-02-28T07:01:26;10.13;;;5.13;;
46675;SDS011;32412;51.478;5.694;2023-02-28T07:03:53;7.63;;;5.22;;
46675;SDS011;32412;51.478;5.694;2023-02-28T07:06:22;10.25;;;4.60;;
46675;SDS011;32412;51.478;5.694;2023-02-28T07:08:49;8.35;;;4.93;;
46675;SDS011;32412;51.478;5.694;2023-02-28T07:11:16;9.77;;;5.05;;
46675;SDS011;32412;51.478;5.694;2023-02-28T07:13:42;11.80;;;6.55;;
46675;SDS011;32412;51.478;5.694;2023-02-28T07:16:09;9.25;;;5.75;;
46675;SDS011;32412;51.478;5.694;2023-02-28T07:18:36;9.98;;;5.40;;
46675;SDS011;32412;51.478;5.694;2023-02-28T07:21:06;7.70;;;5.38;;
46675;SDS011;32412;51.478;5.694;2023-02-28T07:23:34;8.30;;;4.13;;
46675;SDS011;32412;51.478;5.694;2023-02-28T07:26:00;7.95;;;4.10;;
46675;SDS011;32412;51.478;5.694;2023-02-28T07:28:26;8.55;;;4.07;;
46675;SDS011;32412;51.478;5.694;2023-02-28T07:30:52;9.20;;;5.50;;
46675;SDS011;32412;51.478;5.694;2023-02-28T07:33:21;7.88;;;4.80;;
46675;SDS011;32412;51.478;5.694;2023-02-28T07:35:47;4.75;;;3.72;;
46675;SDS011;32412;51.478;5.694;2023-02-28T07:38:13;9.23;;;5.15;;
46675;SDS011;32412;51.478;5.694;2023-02-28T07:40:39;6.75;;;4.10;;
46675;SDS011;32412;51.478;5.694;2023-02-28T07:43:05;8.73;;;4.65;;
46675;SDS011;32412;51.478;5.694;2023-02-28T07:45:31;9.57;;;4.07;;
46675;SDS011;32412;51.478;5.694;2023-02-28T07:47:59;7.30;;;4.20;;
46675;SDS011;32412;51.478;5.694;2023-02-28T07:50:25;9.35;;;3.83;;
46675;SDS011;32412;51.478;5.694;2023-02-28T07:52:54;7.00;;;3.55;;
46675;SDS011;32412;51.478;5.694;2023-02-28T07:55:19;14.25;;;4.00;;
46675;SDS011;32412;51.478;5.694;2023-02-28T07:57:45;6.53;;;3.33;;
46675;SDS011;32412;51.478;5.694;2023-02-28T08:00:11;6.53;;;4.20;;
46675;SDS011;32412;51.478;5.694;2023-02-28T08:02:38;7.38;;;3.72;;
46675;SDS011;32412;51.478;5.694;2023-02-28T08:05:05;7.45;;;3.80;;
46675;SDS011;32412;51.478;5.694;2023-02-28T08:07:31;4.53;;;2.78;;
46675;SDS011;32412;51.478;5.694;2023-02-28T08:10:05;6.22;;;2.85;;
46675;SDS011;32412;51.478;5.694;2023-02-28T08:12:31;5.13;;;3.15;;
46675;SDS011;32412;51.478;5.694;2023-02-28T08:15:00;4.25;;;2.70;;
46675;SDS011;32412;51.478;5.694;2023-02-28T08:17:29;5.35;;;2.50;;
46675;SDS011;32412;51.478;5.694;2023-02-28T08:19:54;5.75;;;2.85;;
46675;SDS011;32412;51.478;5.694;2023-02-28T08:22:20;6.18;;;2.85;;
46675;SDS011;32412;51.478;5.694;2023-02-28T08:24:45;6.00;;;3.15;;
46675;SDS011;32412;51.478;5.694;2023-02-28T08:27:11;8.55;;;3.38;;
46675;SDS011;32412;51.478;5.694;2023-02-28T08:29:38;6.43;;;3.33;;
46675;SDS011;32412;51.478;5.694;2023-02-28T08:32:04;6.38;;;3.38;;
46675;SDS011;32412;51.478;5.694;2023-02-28T08:34:31;6.20;;;3.28;;
46675;SDS011;32412;51.478;5.694;2023-02-28T08:36:57;6.35;;;3.60;;
46675;SDS011;32412;51.478;5.694;2023-02-28T08:39:22;8.82;;;3.22;;
46675;SDS011;32412;51.478;5.694;2023-02-28T08:41:48;7.85;;;2.75;;
46675;SDS011;32412;51.478;5.694;2023-02-28T08:44:13;5.03;;;3.00;;
46675;SDS011;32412;51.478;5.694;2023-02-28T08:46:39;5.43;;;2.50;;
46675;SDS011;32412;51.478;5.694;2023-02-28T08:49:05;3.53;;;2.22;;
46675;SDS011;32412;51.478;5.694;2023-02-28T08:51:31;3.97;;;2.20;;
46675;SDS011;32412;51.478;5.694;2023-02-28T08:53:58;4.38;;;2.25;;
46675;SDS011;32412;51.478;5.694;2023-02-28T08:56:27;5.07;;;2.38;;
46675;SDS011;32412;51.478;5.694;2023-02-28T08:58:54;3.60;;;1.92;;
46675;SDS011;32412;51.478;5.694;2023-02-28T09:01:22;2.25;;;1.90;;
46675;SDS011;32412;51.478;5.694;2023-02-28T09:03:53;3.28;;;2.00;;
46675;SDS011;32412;51.478;5.694;2023-02-28T09:06:23;2.20;;;1.75;;
46675;SDS011;32412;51.478;5.694;2023-02-28T09:08:50;2.67;;;1.98;;
46675;SDS011;32412;51.478;5.694;2023-02-28T09:11:17;5.97;;;2.20;;
46675;SDS011;32412;51.478;5.694;2023-02-28T09:13:44;3.75;;;1.63;;
46675;SDS011;32412;51.478;5.694;2023-02-28T09:16:11;4.55;;;1.90;;
46675;SDS011;32412;51.478;5.694;2023-02-28T09:18:39;2.60;;;1.50;;
46675;SDS011;32412;51.478;5.694;2023-02-28T09:21:06;3.40;;;1.88;;
46675;SDS011;32412;51.478;5.694;2023-02-28T09:23:36;1.42;;;1.33;;
46675;SDS011;32412;51.478;5.694;2023-02-28T09:26:03;4.53;;;1.55;;
46675;SDS011;32412;51.478;5.694;2023-02-28T09:28:29;2.30;;;1.40;;
46675;SDS011;32412;51.478;5.694;2023-02-28T09:30:55;3.85;;;1.60;;
46675;SDS011;32412;51.478;5.694;2023-02-28T09:33:22;3.75;;;1.45;;
46675;SDS011;32412;51.478;5.694;2023-02-28T09:35:48;3.15;;;1.60;;
46675;SDS011;32412;51.478;5.694;2023-02-28T09:38:15;3.13;;;1.30;;
46675;SDS011;32412;51.478;5.694;2023-02-28T09:40:51;3.13;;;1.58;;
46675;SDS011;32412;51.478;5.694;2023-02-28T09:43:21;1.85;;;1.48;;
46675;SDS011;32412;51.478;5.694;2023-02-28T09:46:02;2.08;;;1.40;;
46675;SDS011;32412;51.478;5.694;2023-02-28T09:48:49;3.63;;;1.45;;
46675;SDS011;32412;51.478;5.694;2023-02-28T09:51:24;2.38;;;1.30;;
46675;SDS011;32412;51.478;5.694;2023-02-28T09:53:52;2.85;;;1.60;;
46675;SDS011;32412;51.478;5.694;2023-02-28T09:56:22;2.75;;;1.42;;
46675;SDS011;32412;51.478;5.694;2023-02-28T09:59:10;3.22;;;1.25;;
46675;SDS011;32412;51.478;5.694;2023-02-28T10:04:51;1.67;;;1.40;;
46675;SDS011;32412;51.478;5.694;2023-02-28T10:09:52;1.30;;;1.20;;
46675;SDS011;32412;51.478;5.694;2023-02-28T10:12:21;3.40;;;1.40;;
46675;SDS011;32412;51.478;5.694;2023-02-28T10:14:47;3.13;;;1.63;;
46675;SDS011;32412;51.478;5.694;2023-02-28T10:17:18;2.67;;;1.52;;
46675;SDS011;32412;51.478;5.694;2023-02-28T10:20:04;1.40;;;1.30;;
46675;SDS011;32412;51.478;5.694;2023-02-28T10:22:40;11.38;;;1.88;;
46675;SDS011;32412;51.478;5.694;2023-02-28T10:25:25;8.95;;;1.65;;
46675;SDS011;32412;51.478;5.694;2023-02-28T10:27:53;1.42;;;1.15;;
46675;SDS011;32412;51.478;5.694;2023-02-28T10:30:25;1.92;;;1.40;;
46675;SDS011;32412;51.478;5.694;2023-02-28T10:32:52;2.25;;;1.15;;
46675;SDS011;32412;51.478;5.694;2023-02-28T10:37:50;3.35;;;1.30;;
46675;SDS011;32412;51.478;5.694;2023-02-28T10:45:52;13.23;;;2.30;;
46675;SDS011;32412;51.478;5.694;2023-02-28T10:51:10;2.15;;;1.30;;
46675;SDS011;32412;51.478;5.694;2023-02-28T10:53:51;1.30;;;1.10;;
46675;SDS011;32412;51.478;5.694;2023-02-28T10:56:18;1.42;;;1.20;;
46675;SDS011;32412;51.478;5.694;2023-02-28T10:58:49;1.50;;;1.33;;
46675;SDS011;32412;51.478;5.694;2023-02-28T11:01:22;5.82;;;1.10;;
46675;SDS011;32412;51.478;5.694;2023-02-28T11:04:00;3.55;;;1.23;;
46675;SDS011;32412;51.478;5.694;2023-02-28T11:06:33;1.73;;;1.20;;
46675;SDS011;32412;51.478;5.694;2023-02-28T11:09:04;1.95;;;1.55;;
46675;SDS011;32412;51.478;5.694;2023-02-28T11:11:43;1.70;;;1.40;;
46675;SDS011;32412;51.478;5.694;2023-02-28T11:14:18;1.65;;;1.27;;
46675;SDS011;32412;51.478;5.694;2023-02-28T11:16:44;1.55;;;1.30;;
46675;SDS011;32412;51.478;5.694;2023-02-28T11:19:16;1.75;;;1.27;;
46675;SDS011;32412;51.478;5.694;2023-02-28T11:21:51;2.20;;;1.50;;
46675;SDS011;32412;51.478;5.694;2023-02-28T11:24:30;1.92;;;1.52;;
46675;SDS011;32412;51.478;5.694;2023-02-28T11:27:00;4.47;;;1.50;;
46675;SDS011;32412;51.478;5.694;2023-02-28T11:29:28;2.40;;;1.60;;
46675;SDS011;32412;51.478;5.694;2023-02-28T11:34:27;2.53;;;1.55;;
46675;SDS011;32412;51.478;5.694;2023-02-28T11:36:54;2.38;;;1.60;;
46675;SDS011;32412;51.478;5.694;2023-02-28T11:39:22;1.45;;;1.27;;
46675;SDS011;32412;51.478;5.694;2023-02-28T11:50:26;2.53;;;1.70;;
46675;SDS011;32412;51.478;5.694;2023-02-28T11:55:49;7.90;;;2.10;;
46675;SDS011;32412;51.478;5.694;2023-02-28T12:01:21;3.17;;;2.25;;
46675;SDS011;32412;51.478;5.694;2023-02-28T12:04:24;2.33;;;1.80;;
46675;SDS011;32412;51.478;5.694;2023-02-28T12:10:17;4.47;;;1.80;;
46675;SDS011;32412;51.478;5.694;2023-02-28T12:12:53;2.08;;;1.25;;
46675;SDS011;32412;51.478;5.694;2023-02-28T12:18:27;3.85;;;1.60;;
46675;SDS011;32412;51.478;5.694;2023-02-28T12:21:18;1.67;;;1.40;;
46675;SDS011;32412;51.478;5.694;2023-02-28T12:26:41;2.35;;;1.90;;
46675;SDS011;32412;51.478;5.694;2023-02-28T12:29:19;2.47;;;1.30;;
46675;SDS011;32412;51.478;5.694;2023-02-28T12:37:36;2.45;;;1.75;;
46675;SDS011;32412;51.478;5.694;2023-02-28T12:40:34;3.47;;;1.65;;
46675;SDS011;32412;51.478;5.694;2023-02-28T12:42:58;4.78;;;1.70;;
46675;SDS011;32412;51.478;5.694;2023-02-28T12:48:27;2.08;;;1.40;;
46675;SDS011;32412;51.478;5.694;2023-02-28T12:51:15;2.60;;;1.55;;
46675;SDS011;32412;51.478;5.694;2023-02-28T12:57:02;2.85;;;1.98;;
46675;SDS011;32412;51.478;5.694;2023-02-28T13:10:49;4.63;;;1.77;;
46675;SDS011;32412;51.478;5.694;2023-02-28T13:13:20;2.50;;;1.80;;
46675;SDS011;32412;51.478;5.694;2023-02-28T13:16:05;1.65;;;1.38;;
46675;SDS011;32412;51.478;5.694;2023-02-28T13:18:34;2.87;;;1.70;;
46675;SDS011;32412;51.478;5.694;2023-02-28T13:21:02;3.03;;;1.40;;
46675;SDS011;32412;51.478;5.694;2023-02-28T13:23:38;2.83;;;1.50;;
46675;SDS011;32412;51.478;5.694;2023-02-28T13:26:12;4.60;;;1.90;;
46675;SDS011;32412;51.478;5.694;2023-02-28T13:28:58;1.70;;;1.42;;
46675;SDS011;32412;51.478;5.694;2023-02-28T13:31:24;1.40;;;1.30;;
46675;SDS011;32412;51.478;5.694;2023-02-28T13:46:30;2.78;;;2.40;;
46675;SDS011;32412;51.478;5.694;2023-02-28T13:49:18;2.78;;;2.28;;
46675;SDS011;32412;51.478;5.694;2023-02-28T13:51:44;4.65;;;2.03;;
46675;SDS011;32412;51.478;5.694;2023-02-28T13:54:16;2.83;;;2.42;;
46675;SDS011;32412;51.478;5.694;2023-02-28T13:57:30;3.72;;;2.65;;
46675;SDS011;32412;51.478;5.694;2023-02-28T14:02:53;5.35;;;2.00;;
46675;SDS011;32412;51.478;5.694;2023-02-28T14:05:26;2.72;;;2.00;;
46675;SDS011;32412;51.478;5.694;2023-02-28T14:07:56;2.22;;;2.03;;
46675;SDS011;32412;51.478;5.694;2023-02-28T14:10:25;5.88;;;3.08;;
46675;SDS011;32412;51.478;5.694;2023-02-28T14:18:31;2.42;;;2.22;;
46675;SDS011;32412;51.478;5.694;2023-02-28T14:37:05;2.63;;;2.22;;
46675;SDS011;32412;51.478;5.694;2023-02-28T14:39:35;4.97;;;2.10;;
46675;SDS011;32412;51.478;5.694;2023-02-28T14:42:22;4.00;;;2.30;;
46675;SDS011;32412;51.478;5.694;2023-02-28T14:44:54;2.38;;;2.00;;
46675;SDS011;32412;51.478;5.694;2023-02-28T14:47:21;3.08;;;2.38;;
46675;SDS011;32412;51.478;5.694;2023-02-28T14:49:48;3.45;;;2.17;;
46675;SDS011;32412;51.478;5.694;2023-02-28T14:55:00;3.90;;;1.87;;
46675;SDS011;32412;51.478;5.694;2023-02-28T14:57:32;3.10;;;2.38;;
46675;SDS011;32412;51.478;5.694;2023-02-28T15:02:47;2.45;;;2.25;;
46675;SDS011;32412;51.478;5.694;2023-02-28T15:07:38;2.00;;;1.90;;
46675;SDS011;32412;51.478;5.694;2023-02-28T15:12:44;2.05;;;1.85;;
46675;SDS011;32412;51.478;5.694;2023-02-28T15:15:17;16.20;;;3.70;;
46675;SDS011;32412;51.478;5.694;2023-02-28T15:17:45;3.80;;;2.25;;
46675;SDS011;32412;51.478;5.694;2023-02-28T15:20:15;6.43;;;2.20;;
46675;SDS011;32412;51.478;5.694;2023-02-28T15:22:41;5.22;;;2.53;;
46675;SDS011;32412;51.478;5.694;2023-02-28T15:25:09;2.95;;;1.73;;
46675;SDS011;32412;51.478;5.694;2023-02-28T15:27:41;2.40;;;2.20;;
46675;SDS011;32412;51.478;5.694;2023-02-28T15:30:22;3.63;;;2.22;;
46675;SDS011;32412;51.478;5.694;2023-02-28T15:38:13;4.85;;;2.22;;
46675;SDS011;32412;51.478;5.694;2023-02-28T15:40:42;5.40;;;2.33;;
46675;SDS011;32412;51.478;5.694;2023-02-28T15:45:55;5.05;;;2.30;;
46675;SDS011;32412;51.478;5.694;2023-02-28T15:53:33;4.38;;;3.08;;
46675;SDS011;32412;51.478;5.694;2023-02-28T15:56:27;2.75;;;2.40;;
46675;SDS011;32412;51.478;5.694;2023-02-28T15:58:53;3.05;;;2.00;;
46675;SDS011;32412;51.478;5.694;2023-02-28T16:01:25;3.67;;;2.72;;
46675;SDS011;32412;51.478;5.694;2023-02-28T16:04:01;2.38;;;2.00;;
46675;SDS011;32412;51.478;5.694;2023-02-28T16:06:33;3.58;;;2.80;;
46675;SDS011;32412;51.478;5.694;2023-02-28T16:08:59;3.15;;;2.22;;
46675;SDS011;32412;51.478;5.694;2023-02-28T16:11:24;3.22;;;2.60;;
46675;SDS011;32412;51.478;5.694;2023-02-28T16:13:50;2.55;;;1.92;;
46675;SDS011;32412;51.478;5.694;2023-02-28T16:16:18;2.13;;;1.92;;
46675;SDS011;32412;51.478;5.694;2023-02-28T16:18:45;1.70;;;1.60;;
46675;SDS011;32412;51.478;5.694;2023-02-28T16:21:10;5.57;;;4.43;;
46675;SDS011;32412;51.478;5.694;2023-02-28T16:23:36;4.82;;;2.63;;
46675;SDS011;32412;51.478;5.694;2023-02-28T16:26:03;3.10;;;2.80;;
46675;SDS011;32412;51.478;5.694;2023-02-28T16:28:30;2.85;;;2.50;;
46675;SDS011;32412;51.478;5.694;2023-02-28T16:31:01;2.83;;;2.60;;
46675;SDS011;32412;51.478;5.694;2023-02-28T16:33:32;3.90;;;3.28;;
46675;SDS011;32412;51.478;5.694;2023-02-28T16:35:59;3.80;;;2.50;;
46675;SDS011;32412;51.478;5.694;2023-02-28T16:38:25;3.47;;;2.50;;
46675;SDS011;32412;51.478;5.694;2023-02-28T16:40:51;2.58;;;2.38;;
46675;SDS011;32412;51.478;5.694;2023-02-28T16:43:18;2.83;;;2.40;;
46675;SDS011;32412;51.478;5.694;2023-02-28T16:45:47;2.85;;;2.47;;
46675;SDS011;32412;51.478;5.694;2023-02-28T16:48:14;2.90;;;2.70;;
46675;SDS011;32412;51.478;5.694;2023-02-28T16:50:41;4.15;;;2.53;;
46675;SDS011;32412;51.478;5.694;2023-02-28T16:53:09;3.00;;;2.70;;
46675;SDS011;32412;51.478;5.694;2023-02-28T16:55:35;3.83;;;2.70;;
46675;SDS011;32412;51.478;5.694;2023-02-28T16:58:02;3.67;;;2.75;;
46675;SDS011;32412;51.478;5.694;2023-02-28T17:00:28;3.35;;;2.38;;
46675;SDS011;32412;51.478;5.694;2023-02-28T17:02:56;3.38;;;2.65;;
46675;SDS011;32412;51.478;5.694;2023-02-28T17:05:24;3.80;;;2.70;;
46675;SDS011;32412;51.478;5.694;2023-02-28T17:07:50;2.90;;;2.28;;
46675;SDS011;32412;51.478;5.694;2023-02-28T17:10:17;5.70;;;4.93;;
46675;SDS011;32412;51.478;5.694;2023-02-28T17:12:44;5.80;;;4.57;;
46675;SDS011;32412;51.478;5.694;2023-02-28T17:15:11;6.28;;;3.78;;
46675;SDS011;32412;51.478;5.694;2023-02-28T17:17:38;4.88;;;3.15;;
46675;SDS011;32412;51.478;5.694;2023-02-28T17:20:04;3.88;;;2.90;;
46675;SDS011;32412;51.478;5.694;2023-02-28T17:22:31;3.67;;;3.22;;
46675;SDS011;32412;51.478;5.694;2023-02-28T17:24:56;3.22;;;2.47;;
46675;SDS011;32412;51.478;5.694;2023-02-28T17:27:23;4.20;;;2.90;;
46675;SDS011;32412;51.478;5.694;2023-02-28T17:29:49;4.80;;;3.00;;
46675;SDS011;32412;51.478;5.694;2023-02-28T17:32:16;3.55;;;2.42;;
46675;SDS011;32412;51.478;5.694;2023-02-28T17:34:41;3.55;;;2.60;;
46675;SDS011;32412;51.478;5.694;2023-02-28T17:37:09;2.80;;;2.47;;
46675;SDS011;32412;51.478;5.694;2023-02-28T17:39:35;4.22;;;2.58;;
46675;SDS011;32412;51.478;5.694;2023-02-28T17:42:00;4.85;;;3.40;;
46675;SDS011;32412;51.478;5.694;2023-02-28T17:44:26;3.45;;;2.92;;